sensor_id;sensor_type;location;lat;lon;timestamp;temperature;humidity
55213;DHT22;41083;52.932;6.674;2023-07-24T00:02:24;16.60;99.90
55213;DHT22;41083;52.932;6.674;2023-07-24T00:04:49;16.60;99.90
55213;DHT22;41083;52.932;6.674;2023-07-24T00:07:15;16.60;99.90
55213;DHT22;41083;52.932;6.674;2023-07-24T00:09:41;16.60;99.90
55213;DHT22;41083;52.932;6.674;2023-07-24T00:12:06;16.60;99.90
55213;DHT22;41083;52.932;6.674;2023-07-24T00:14:32;16.60;99.90
55213;DHT22;41083;52.932;6.674;2023-07-24T00:16:58;16.60;99.90
55213;DHT22;41083;52.932;6.674;2023-07-24T00:19:23;16.50;99.90
55213;DHT22;41083;52.932;6.674;2023-07-24T00:21:49;16.60;99.90
55213;DHT22;41083;52.932;6.674;2023-07-24T00:24:14;16.50;99.90
55213;DHT22;41083;52.932;6.674;2023-07-24T00:26:40;16.50;99.90
55213;DHT22;41083;52.932;6.674;2023-07-24T00:29:05;16.50;99.90
55213;DHT22;41083;52.932;6.674;2023-07-24T00:31:31;16.50;99.90
55213;DHT22;41083;52.932;6.674;2023-07-24T00:33:56;16.50;99.90
55213;DHT22;41083;52.932;6.674;2023-07-24T00:36:25;16.50;99.90
55213;DHT22;41083;52.932;6.674;2023-07-24T00:38:50;16.50;99.90
55213;DHT22;41083;52.932;6.674;2023-07-24T00:41:16;16.50;99.90
55213;DHT22;41083;52.932;6.674;2023-07-24T00:43:42;16.50;99.90
55213;DHT22;41083;52.932;6.674;2023-07-24T00:46:08;16.50;99.90
55213;DHT22;41083;52.932;6.674;2023-07-24T00:48:34;16.50;99.90
55213;DHT22;41083;52.932;6.674;2023-07-24T00:51:00;16.60;99.90
55213;DHT22;41083;52.932;6.674;2023-07-24T00:53:27;16.60;99.90
55213;DHT22;41083;52.932;6.674;2023-07-24T00:55:53;16.50;99.90
55213;DHT22;41083;52.932;6.674;2023-07-24T00:58:19;16.60;99.90
55213;DHT22;41083;52.932;6.674;2023-07-24T01:00:45;16.60;99.90
55213;DHT22;41083;52.932;6.674;2023-07-24T01:03:11;16.60;99.90
55213;DHT22;41083;52.932;6.674;2023-07-24T01:05:38;16.60;99.90
55213;DHT22;41083;52.932;6.674;2023-07-24T01:08:04;16.60;99.90
55213;DHT22;41083;52.932;6.674;2023-07-24T01:10:30;16.60;99.90
55213;DHT22;41083;52.932;6.674;2023-07-24T01:13:19;16.60;99.90
55213;DHT22;41083;52.932;6.674;2023-07-24T01:15:54;16.60;99.90
55213;DHT22;41083;52.932;6.674;2023-07-24T01:18:22;16.60;99.90
55213;DHT22;41083;52.932;6.674;2023-07-24T01:20:53;16.60;99.90
55213;DHT22;41083;52.932;6.674;2023-07-24T01:23:29;16.50;99.90
55213;DHT22;41083;52.932;6.674;2023-07-24T01:26:00;16.60;99.90
55213;DHT22;41083;52.932;6.674;2023-07-24T01:28:28;16.60;99.90
55213;DHT22;41083;52.932;6.674;2023-07-24T01:30:54;16.50;99.90
55213;DHT22;41083;52.932;6.674;2023-07-24T01:33:20;16.50;99.90
55213;DHT22;41083;52.932;6.674;2023-07-24T01:35:49;16.50;99.90
55213;DHT22;41083;52.932;6.674;2023-07-24T01:38:16;16.50;99.90
55213;DHT22;41083;52.932;6.674;2023-07-24T01:40:42;16.50;99.90
55213;DHT22;41083;52.932;6.674;2023-07-24T01:43:09;16.50;99.90
55213;DHT22;41083;52.932;6.674;2023-07-24T01:45:35;16.50;99.90
55213;DHT22;41083;52.932;6.674;2023-07-24T01:48:05;16.50;99.90
55213;DHT22;41083;52.932;6.674;2023-07-24T01:50:31;16.40;99.90
55213;DHT22;41083;52.932;6.674;2023-07-24T01:52:57;16.40;99.90
55213;DHT22;41083;52.932;6.674;2023-07-24T01:55:22;16.40;99.90
55213;DHT22;41083;52.932;6.674;2023-07-24T01:57:48;16.40;99.90
55213;DHT22;41083;52.932;6.674;2023-07-24T02:00:14;16.40;99.90
55213;DHT22;41083;52.932;6.674;2023-07-24T02:02:39;16.40;99.90
55213;DHT22;41083;52.932;6.674;2023-07-24T02:05:05;16.40;99.90
55213;DHT22;41083;52.932;6.674;2023-07-24T02:07:30;16.40;99.90
55213;DHT22;41083;52.932;6.674;2023-07-24T02:09:56;16.40;99.90
55213;DHT22;41083;52.932;6.674;2023-07-24T02:12:22;16.40;99.90
55213;DHT22;41083;52.932;6.674;2023-07-24T02:14:48;16.40;99.90
55213;DHT22;41083;52.932;6.674;2023-07-24T02:17:15;16.40;99.90
55213;DHT22;41083;52.932;6.674;2023-07-24T02:19:41;16.40;99.90
55213;DHT22;41083;52.932;6.674;2023-07-24T02:22:07;16.40;99.90
55213;DHT22;41083;52.932;6.674;2023-07-24T02:24:32;16.40;99.90
55213;DHT22;41083;52.932;6.674;2023-07-24T02:26:58;16.40;99.90
55213;DHT22;41083;52.932;6.674;2023-07-24T02:29:24;16.40;99.90
55213;DHT22;41083;52.932;6.674;2023-07-24T02:31:50;16.40;99.90
55213;DHT22;41083;52.932;6.674;2023-07-24T02:34:16;16.40;99.90
55213;DHT22;41083;52.932;6.674;2023-07-24T02:36:41;16.40;99.90
55213;DHT22;41083;52.932;6.674;2023-07-24T02:39:07;16.40;99.90
55213;DHT22;41083;52.932;6.674;2023-07-24T02:41:33;16.40;99.90
55213;DHT22;41083;52.932;6.674;2023-07-24T02:43:58;16.40;99.90
55213;DHT22;41083;52.932;6.674;2023-07-24T02:46:24;16.40;99.90
55213;DHT22;41083;52.932;6.674;2023-07-24T02:48:51;16.40;99.90
55213;DHT22;41083;52.932;6.674;2023-07-24T02:51:16;16.40;99.90
55213;DHT22;41083;52.932;6.674;2023-07-24T02:53:42;16.40;99.90
55213;DHT22;41083;52.932;6.674;2023-07-24T02:56:08;16.40;99.90
55213;DHT22;41083;52.932;6.674;2023-07-24T02:58:33;16.40;99.90
55213;DHT22;41083;52.932;6.674;2023-07-24T03:01:06;16.40;99.90
55213;DHT22;41083;52.932;6.674;2023-07-24T03:03:35;16.40;99.90
55213;DHT22;41083;52.932;6.674;2023-07-24T03:06:01;16.40;99.90
55213;DHT22;41083;52.932;6.674;2023-07-24T03:08:27;16.40;99.90
55213;DHT22;41083;52.932;6.674;2023-07-24T03:10:52;16.30;99.90
55213;DHT22;41083;52.932;6.674;2023-07-24T03:13:18;16.30;99.90
55213;DHT22;41083;52.932;6.674;2023-07-24T03:15:50;16.30;99.90
55213;DHT22;41083;52.932;6.674;2023-07-24T03:18:16;16.30;99.90
55213;DHT22;41083;52.932;6.674;2023-07-24T03:20:42;16.30;99.90
55213;DHT22;41083;52.932;6.674;2023-07-24T03:23:07;16.30;99.90
55213;DHT22;41083;52.932;6.674;2023-07-24T03:25:33;16.30;99.90
55213;DHT22;41083;52.932;6.674;2023-07-24T03:28:01;16.30;99.90
55213;DHT22;41083;52.932;6.674;2023-07-24T03:30:26;16.30;99.90
55213;DHT22;41083;52.932;6.674;2023-07-24T03:32:52;16.30;99.90
55213;DHT22;41083;52.932;6.674;2023-07-24T03:35:17;16.30;99.90
55213;DHT22;41083;52.932;6.674;2023-07-24T03:37:43;16.20;99.90
55213;DHT22;41083;52.932;6.674;2023-07-24T03:40:09;16.20;99.90
55213;DHT22;41083;52.932;6.674;2023-07-24T03:42:34;16.30;99.90
55213;DHT22;41083;52.932;6.674;2023-07-24T03:45:00;16.30;99.90
55213;DHT22;41083;52.932;6.674;2023-07-24T03:47:25;16.20;99.90
55213;DHT22;41083;52.932;6.674;2023-07-24T03:49:51;16.20;99.90
55213;DHT22;41083;52.932;6.674;2023-07-24T03:52:17;16.30;99.90
55213;DHT22;41083;52.932;6.674;2023-07-24T03:54:43;16.30;99.90
55213;DHT22;41083;52.932;6.674;2023-07-24T03:57:08;16.30;99.90
55213;DHT22;41083;52.932;6.674;2023-07-24T03:59:34;16.30;99.90
55213;DHT22;41083;52.932;6.674;2023-07-24T04:01:59;16.30;99.90
55213;DHT22;41083;52.932;6.674;2023-07-24T04:04:25;16.30;99.90
55213;DHT22;41083;52.932;6.674;2023-07-24T04:06:51;16.30;99.90
55213;DHT22;41083;52.932;6.674;2023-07-24T04:09:16;16.30;99.90
55213;DHT22;41083;52.932;6.674;2023-07-24T04:11:43;16.30;99.90
55213;DHT22;41083;52.932;6.674;2023-07-24T04:14:09;16.30;99.90
55213;DHT22;41083;52.932;6.674;2023-07-24T04:16:35;16.30;99.90
55213;DHT22;41083;52.932;6.674;2023-07-24T04:19:00;16.30;99.90
55213;DHT22;41083;52.932;6.674;2023-07-24T04:21:26;16.30;99.90
55213;DHT22;41083;52.932;6.674;2023-07-24T04:23:51;16.40;99.90
55213;DHT22;41083;52.932;6.674;2023-07-24T04:26:17;16.30;99.90
55213;DHT22;41083;52.932;6.674;2023-07-24T04:28:43;16.30;99.90
55213;DHT22;41083;52.932;6.674;2023-07-24T04:31:08;16.40;99.90
55213;DHT22;41083;52.932;6.674;2023-07-24T04:33:34;16.40;99.90
55213;DHT22;41083;52.932;6.674;2023-07-24T04:35:59;16.30;99.90
55213;DHT22;41083;52.932;6.674;2023-07-24T04:38:25;16.40;99.90
55213;DHT22;41083;52.932;6.674;2023-07-24T04:40:51;16.40;99.90
55213;DHT22;41083;52.932;6.674;2023-07-24T04:43:16;16.40;99.90
55213;DHT22;41083;52.932;6.674;2023-07-24T04:45:42;16.40;99.90
55213;DHT22;41083;52.932;6.674;2023-07-24T04:48:08;16.40;99.90
55213;DHT22;41083;52.932;6.674;2023-07-24T04:50:33;16.40;99.90
55213;DHT22;41083;52.932;6.674;2023-07-24T04:52:59;16.40;99.90
55213;DHT22;41083;52.932;6.674;2023-07-24T04:55:24;16.40;99.90
55213;DHT22;41083;52.932;6.674;2023-07-24T04:57:50;16.40;99.90
55213;DHT22;41083;52.932;6.674;2023-07-24T05:00:16;16.40;99.90
55213;DHT22;41083;52.932;6.674;2023-07-24T05:02:42;16.40;99.90
55213;DHT22;41083;52.932;6.674;2023-07-24T05:05:08;16.40;99.90
55213;DHT22;41083;52.932;6.674;2023-07-24T05:07:33;16.40;99.90
55213;DHT22;41083;52.932;6.674;2023-07-24T05:09:59;16.40;99.90
55213;DHT22;41083;52.932;6.674;2023-07-24T05:12:25;16.40;99.90
55213;DHT22;41083;52.932;6.674;2023-07-24T05:14:50;16.40;99.90
55213;DHT22;41083;52.932;6.674;2023-07-24T05:17:16;16.40;99.90
55213;DHT22;41083;52.932;6.674;2023-07-24T05:19:42;16.40;99.90
55213;DHT22;41083;52.932;6.674;2023-07-24T05:22:07;16.40;99.90
55213;DHT22;41083;52.932;6.674;2023-07-24T05:24:36;16.40;99.90
55213;DHT22;41083;52.932;6.674;2023-07-24T05:27:02;16.40;99.90
55213;DHT22;41083;52.932;6.674;2023-07-24T05:29:27;16.40;99.90
55213;DHT22;41083;52.932;6.674;2023-07-24T05:31:53;16.40;99.90
55213;DHT22;41083;52.932;6.674;2023-07-24T05:34:18;16.40;99.90
55213;DHT22;41083;52.932;6.674;2023-07-24T05:36:44;16.50;99.90
55213;DHT22;41083;52.932;6.674;2023-07-24T05:39:09;16.50;99.90
55213;DHT22;41083;52.932;6.674;2023-07-24T05:41:35;16.60;99.90
55213;DHT22;41083;52.932;6.674;2023-07-24T05:44:01;16.60;99.90
55213;DHT22;41083;52.932;6.674;2023-07-24T05:46:26;16.60;99.90
55213;DHT22;41083;52.932;6.674;2023-07-24T05:48:52;16.60;99.90
55213;DHT22;41083;52.932;6.674;2023-07-24T05:51:17;16.60;99.90
55213;DHT22;41083;52.932;6.674;2023-07-24T05:53:43;16.70;99.90
55213;DHT22;41083;52.932;6.674;2023-07-24T05:56:09;16.70;99.90
55213;DHT22;41083;52.932;6.674;2023-07-24T05:58:34;16.70;99.90
55213;DHT22;41083;52.932;6.674;2023-07-24T06:01:00;16.70;99.90
55213;DHT22;41083;52.932;6.674;2023-07-24T06:03:26;16.70;99.90
55213;DHT22;41083;52.932;6.674;2023-07-24T06:05:55;16.70;99.90
55213;DHT22;41083;52.932;6.674;2023-07-24T06:08:21;16.80;99.90
55213;DHT22;41083;52.932;6.674;2023-07-24T06:10:49;16.80;99.90
55213;DHT22;41083;52.932;6.674;2023-07-24T06:13:18;16.70;99.90
55213;DHT22;41083;52.932;6.674;2023-07-24T06:15:46;16.80;99.90
55213;DHT22;41083;52.932;6.674;2023-07-24T06:18:12;16.80;99.90
55213;DHT22;41083;52.932;6.674;2023-07-24T06:20:37;16.80;99.90
55213;DHT22;41083;52.932;6.674;2023-07-24T06:23:03;16.80;99.90
55213;DHT22;41083;52.932;6.674;2023-07-24T06:25:30;16.80;99.90
55213;DHT22;41083;52.932;6.674;2023-07-24T06:27:56;16.90;99.90
55213;DHT22;41083;52.932;6.674;2023-07-24T06:30:22;16.90;99.90
55213;DHT22;41083;52.932;6.674;2023-07-24T06:32:48;17.00;99.90
55213;DHT22;41083;52.932;6.674;2023-07-24T06:35:13;17.00;99.90
55213;DHT22;41083;52.932;6.674;2023-07-24T06:37:39;17.10;99.90
55213;DHT22;41083;52.932;6.674;2023-07-24T06:40:06;17.20;99.90
55213;DHT22;41083;52.932;6.674;2023-07-24T06:42:32;17.20;99.90
55213;DHT22;41083;52.932;6.674;2023-07-24T06:44:58;17.20;99.90
55213;DHT22;41083;52.932;6.674;2023-07-24T06:47:24;17.30;99.90
55213;DHT22;41083;52.932;6.674;2023-07-24T06:49:49;17.30;99.90
55213;DHT22;41083;52.932;6.674;2023-07-24T06:52:15;17.30;99.90
55213;DHT22;41083;52.932;6.674;2023-07-24T06:54:41;17.30;99.90
55213;DHT22;41083;52.932;6.674;2023-07-24T06:57:06;17.30;99.90
55213;DHT22;41083;52.932;6.674;2023-07-24T06:59:32;17.30;99.90
55213;DHT22;41083;52.932;6.674;2023-07-24T07:01:58;17.30;99.90
55213;DHT22;41083;52.932;6.674;2023-07-24T07:04:23;17.40;99.90
55213;DHT22;41083;52.932;6.674;2023-07-24T07:06:49;17.40;99.90
55213;DHT22;41083;52.932;6.674;2023-07-24T07:09:15;17.50;99.90
55213;DHT22;41083;52.932;6.674;2023-07-24T07:11:40;17.50;99.90
55213;DHT22;41083;52.932;6.674;2023-07-24T07:14:08;17.50;99.90
55213;DHT22;41083;52.932;6.674;2023-07-24T07:16:34;17.60;99.90
55213;DHT22;41083;52.932;6.674;2023-07-24T07:19:00;17.60;99.90
55213;DHT22;41083;52.932;6.674;2023-07-24T07:21:25;17.80;99.90
55213;DHT22;41083;52.932;6.674;2023-07-24T07:23:51;17.80;99.90
55213;DHT22;41083;52.932;6.674;2023-07-24T07:26:17;17.90;99.90
55213;DHT22;41083;52.932;6.674;2023-07-24T07:28:43;18.00;99.90
55213;DHT22;41083;52.932;6.674;2023-07-24T07:31:10;18.00;99.90
55213;DHT22;41083;52.932;6.674;2023-07-24T07:33:36;18.00;99.90
55213;DHT22;41083;52.932;6.674;2023-07-24T07:36:01;17.90;99.90
55213;DHT22;41083;52.932;6.674;2023-07-24T07:38:29;17.90;99.90
55213;DHT22;41083;52.932;6.674;2023-07-24T07:40:54;17.90;99.90
55213;DHT22;41083;52.932;6.674;2023-07-24T07:43:20;17.90;99.90
55213;DHT22;41083;52.932;6.674;2023-07-24T07:45:46;18.00;99.90
55213;DHT22;41083;52.932;6.674;2023-07-24T07:48:12;18.00;99.90
55213;DHT22;41083;52.932;6.674;2023-07-24T07:50:38;18.10;99.90
55213;DHT22;41083;52.932;6.674;2023-07-24T07:53:03;18.20;99.90
55213;DHT22;41083;52.932;6.674;2023-07-24T07:55:29;18.20;99.90
55213;DHT22;41083;52.932;6.674;2023-07-24T07:57:54;18.30;99.90
55213;DHT22;41083;52.932;6.674;2023-07-24T08:00:20;18.30;99.90
55213;DHT22;41083;52.932;6.674;2023-07-24T08:02:46;18.30;99.90
55213;DHT22;41083;52.932;6.674;2023-07-24T08:05:12;18.30;99.90
55213;DHT22;41083;52.932;6.674;2023-07-24T08:07:37;18.30;99.90
55213;DHT22;41083;52.932;6.674;2023-07-24T08:10:03;18.40;99.90
55213;DHT22;41083;52.932;6.674;2023-07-24T08:12:29;18.40;99.90
55213;DHT22;41083;52.932;6.674;2023-07-24T08:14:58;18.50;99.90
55213;DHT22;41083;52.932;6.674;2023-07-24T08:17:23;18.60;99.90
55213;DHT22;41083;52.932;6.674;2023-07-24T08:19:49;18.70;99.90
55213;DHT22;41083;52.932;6.674;2023-07-24T08:22:14;18.70;99.90
55213;DHT22;41083;52.932;6.674;2023-07-24T08:24:40;18.80;99.90
55213;DHT22;41083;52.932;6.674;2023-07-24T08:27:06;18.90;99.90
55213;DHT22;41083;52.932;6.674;2023-07-24T08:29:31;18.90;99.90
55213;DHT22;41083;52.932;6.674;2023-07-24T08:31:58;18.90;99.90
55213;DHT22;41083;52.932;6.674;2023-07-24T08:34:24;18.90;99.90
55213;DHT22;41083;52.932;6.674;2023-07-24T08:36:49;19.00;99.90
55213;DHT22;41083;52.932;6.674;2023-07-24T08:39:15;19.00;99.90
55213;DHT22;41083;52.932;6.674;2023-07-24T08:41:41;18.90;99.90
55213;DHT22;41083;52.932;6.674;2023-07-24T08:44:09;18.90;99.90
55213;DHT22;41083;52.932;6.674;2023-07-24T08:46:36;18.90;99.90
55213;DHT22;41083;52.932;6.674;2023-07-24T08:49:03;19.00;99.90
55213;DHT22;41083;52.932;6.674;2023-07-24T08:51:29;18.90;99.90
55213;DHT22;41083;52.932;6.674;2023-07-24T08:53:57;18.80;99.90
55213;DHT22;41083;52.932;6.674;2023-07-24T08:56:23;18.80;99.90
55213;DHT22;41083;52.932;6.674;2023-07-24T08:58:48;18.80;99.90
55213;DHT22;41083;52.932;6.674;2023-07-24T09:01:14;18.70;99.90
55213;DHT22;41083;52.932;6.674;2023-07-24T09:03:39;18.90;99.90
55213;DHT22;41083;52.932;6.674;2023-07-24T09:06:05;18.90;99.90
55213;DHT22;41083;52.932;6.674;2023-07-24T09:08:34;18.90;99.90
55213;DHT22;41083;52.932;6.674;2023-07-24T09:11:01;19.10;99.90
55213;DHT22;41083;52.932;6.674;2023-07-24T09:13:28;19.10;99.90
55213;DHT22;41083;52.932;6.674;2023-07-24T09:15:54;19.20;99.90
55213;DHT22;41083;52.932;6.674;2023-07-24T09:18:20;19.30;99.90
55213;DHT22;41083;52.932;6.674;2023-07-24T09:20:46;19.50;99.90
55213;DHT22;41083;52.932;6.674;2023-07-24T09:23:14;19.50;99.90
55213;DHT22;41083;52.932;6.674;2023-07-24T09:25:41;19.60;99.90
55213;DHT22;41083;52.932;6.674;2023-07-24T09:28:15;19.60;99.90
55213;DHT22;41083;52.932;6.674;2023-07-24T09:30:42;19.70;99.90
55213;DHT22;41083;52.932;6.674;2023-07-24T09:33:16;19.80;99.90
55213;DHT22;41083;52.932;6.674;2023-07-24T09:35:42;19.80;99.90
55213;DHT22;41083;52.932;6.674;2023-07-24T09:38:10;19.80;99.90
55213;DHT22;41083;52.932;6.674;2023-07-24T09:40:42;19.80;99.90
55213;DHT22;41083;52.932;6.674;2023-07-24T09:43:19;19.80;99.90
55213;DHT22;41083;52.932;6.674;2023-07-24T09:45:46;19.90;99.90
55213;DHT22;41083;52.932;6.674;2023-07-24T09:48:13;19.90;99.90
55213;DHT22;41083;52.932;6.674;2023-07-24T09:50:41;19.90;99.90
55213;DHT22;41083;52.932;6.674;2023-07-24T09:56:05;19.90;99.90
55213;DHT22;41083;52.932;6.674;2023-07-24T09:58:36;20.00;99.90
55213;DHT22;41083;52.932;6.674;2023-07-24T10:01:07;20.10;99.90
55213;DHT22;41083;52.932;6.674;2023-07-24T10:03:38;20.00;99.90
55213;DHT22;41083;52.932;6.674;2023-07-24T10:06:04;20.10;99.90
55213;DHT22;41083;52.932;6.674;2023-07-24T10:08:30;20.20;99.90
55213;DHT22;41083;52.932;6.674;2023-07-24T10:10:58;20.20;99.90
55213;DHT22;41083;52.932;6.674;2023-07-24T10:13:26;20.30;99.90
55213;DHT22;41083;52.932;6.674;2023-07-24T10:15:52;20.30;99.90
55213;DHT22;41083;52.932;6.674;2023-07-24T10:18:28;20.40;99.90
55213;DHT22;41083;52.932;6.674;2023-07-24T10:21:06;20.40;99.90
55213;DHT22;41083;52.932;6.674;2023-07-24T10:23:40;20.50;99.90
55213;DHT22;41083;52.932;6.674;2023-07-24T10:26:07;20.50;99.90
55213;DHT22;41083;52.932;6.674;2023-07-24T10:28:35;20.50;99.90
55213;DHT22;41083;52.932;6.674;2023-07-24T10:31:07;20.50;99.90
55213;DHT22;41083;52.932;6.674;2023-07-24T10:33:35;20.50;99.90
55213;DHT22;41083;52.932;6.674;2023-07-24T10:36:09;20.50;99.90
55213;DHT22;41083;52.932;6.674;2023-07-24T10:38:46;20.60;99.90
55213;DHT22;41083;52.932;6.674;2023-07-24T10:41:12;20.60;99.90
55213;DHT22;41083;52.932;6.674;2023-07-24T10:43:46;20.60;99.90
55213;DHT22;41083;52.932;6.674;2023-07-24T10:46:13;20.70;99.90
55213;DHT22;41083;52.932;6.674;2023-07-24T10:48:44;20.70;99.90
55213;DHT22;41083;52.932;6.674;2023-07-24T10:51:11;20.80;99.90
55213;DHT22;41083;52.932;6.674;2023-07-24T10:53:44;20.80;99.90
55213;DHT22;41083;52.932;6.674;2023-07-24T10:56:10;20.80;99.90
55213;DHT22;41083;52.932;6.674;2023-07-24T10:58:36;20.80;99.90
55213;DHT22;41083;52.932;6.674;2023-07-24T11:01:04;20.90;99.90
55213;DHT22;41083;52.932;6.674;2023-07-24T11:03:30;20.90;99.90
55213;DHT22;41083;52.932;6.674;2023-07-24T11:05:58;20.90;99.90
55213;DHT22;41083;52.932;6.674;2023-07-24T11:08:24;20.90;99.90
55213;DHT22;41083;52.932;6.674;2023-07-24T11:10:54;20.80;99.90
55213;DHT22;41083;52.932;6.674;2023-07-24T11:13:28;20.90;99.90
55213;DHT22;41083;52.932;6.674;2023-07-24T11:15:54;20.90;99.90
55213;DHT22;41083;52.932;6.674;2023-07-24T11:18:21;20.80;99.90
55213;DHT22;41083;52.932;6.674;2023-07-24T11:20:50;20.80;99.90
55213;DHT22;41083;52.932;6.674;2023-07-24T11:23:17;20.60;99.90
55213;DHT22;41083;52.932;6.674;2023-07-24T11:25:43;20.50;99.90
55213;DHT22;41083;52.932;6.674;2023-07-24T11:28:10;20.40;99.90
55213;DHT22;41083;52.932;6.674;2023-07-24T11:30:36;20.30;99.90
55213;DHT22;41083;52.932;6.674;2023-07-24T11:33:05;20.30;99.90
55213;DHT22;41083;52.932;6.674;2023-07-24T11:35:31;20.10;99.90
55213;DHT22;41083;52.932;6.674;2023-07-24T11:37:57;20.00;99.90
55213;DHT22;41083;52.932;6.674;2023-07-24T11:40:38;20.00;99.90
55213;DHT22;41083;52.932;6.674;2023-07-24T11:43:04;20.10;99.90
55213;DHT22;41083;52.932;6.674;2023-07-24T11:45:31;20.10;99.90
55213;DHT22;41083;52.932;6.674;2023-07-24T11:47:57;20.20;99.90
55213;DHT22;41083;52.932;6.674;2023-07-24T11:50:23;20.20;99.90
55213;DHT22;41083;52.932;6.674;2023-07-24T11:52:51;20.20;99.90
55213;DHT22;41083;52.932;6.674;2023-07-24T11:55:18;20.20;99.90
55213;DHT22;41083;52.932;6.674;2023-07-24T11:57:56;20.30;99.90
55213;DHT22;41083;52.932;6.674;2023-07-24T12:00:22;20.30;99.90
55213;DHT22;41083;52.932;6.674;2023-07-24T12:02:48;20.40;99.90
55213;DHT22;41083;52.932;6.674;2023-07-24T12:05:14;20.40;99.90
55213;DHT22;41083;52.932;6.674;2023-07-24T12:07:39;20.60;99.90
55213;DHT22;41083;52.932;6.674;2023-07-24T12:10:07;20.70;99.90
55213;DHT22;41083;52.932;6.674;2023-07-24T12:12:42;20.70;99.90
55213;DHT22;41083;52.932;6.674;2023-07-24T12:15:08;20.70;99.90
55213;DHT22;41083;52.932;6.674;2023-07-24T12:17:34;20.70;99.90
55213;DHT22;41083;52.932;6.674;2023-07-24T12:20:00;20.70;99.90
55213;DHT22;41083;52.932;6.674;2023-07-24T12:22:25;20.70;99.90
55213;DHT22;41083;52.932;6.674;2023-07-24T12:24:51;20.70;99.90
55213;DHT22;41083;52.932;6.674;2023-07-24T12:27:17;20.70;99.90
55213;DHT22;41083;52.932;6.674;2023-07-24T12:29:42;20.70;99.90
55213;DHT22;41083;52.932;6.674;2023-07-24T12:32:09;20.70;99.90
55213;DHT22;41083;52.932;6.674;2023-07-24T12:34:35;20.70;99.90
55213;DHT22;41083;52.932;6.674;2023-07-24T12:37:00;20.70;99.90
55213;DHT22;41083;52.932;6.674;2023-07-24T12:39:26;20.70;99.90
55213;DHT22;41083;52.932;6.674;2023-07-24T12:41:51;20.70;99.90
55213;DHT22;41083;52.932;6.674;2023-07-24T12:44:17;20.60;99.90
55213;DHT22;41083;52.932;6.674;2023-07-24T12:46:42;20.70;99.90
55213;DHT22;41083;52.932;6.674;2023-07-24T12:49:08;20.70;99.90
55213;DHT22;41083;52.932;6.674;2023-07-24T12:51:33;20.70;99.90
55213;DHT22;41083;52.932;6.674;2023-07-24T12:53:59;20.70;99.90
55213;DHT22;41083;52.932;6.674;2023-07-24T12:56:25;20.80;99.90
55213;DHT22;41083;52.932;6.674;2023-07-24T12:58:50;20.80;99.90
55213;DHT22;41083;52.932;6.674;2023-07-24T13:01:16;20.80;99.90
55213;DHT22;41083;52.932;6.674;2023-07-24T13:03:41;20.70;99.90
55213;DHT22;41083;52.932;6.674;2023-07-24T13:06:07;20.70;99.90
55213;DHT22;41083;52.932;6.674;2023-07-24T13:08:33;20.70;99.90
55213;DHT22;41083;52.932;6.674;2023-07-24T13:10:58;20.70;99.90
55213;DHT22;41083;52.932;6.674;2023-07-24T13:13:24;20.70;99.90
55213;DHT22;41083;52.932;6.674;2023-07-24T13:15:49;20.60;99.90
55213;DHT22;41083;52.932;6.674;2023-07-24T13:18:17;20.50;99.90
55213;DHT22;41083;52.932;6.674;2023-07-24T13:20:43;20.40;99.90
55213;DHT22;41083;52.932;6.674;2023-07-24T13:23:09;20.30;99.90
55213;DHT22;41083;52.932;6.674;2023-07-24T13:25:35;20.20;99.90
55213;DHT22;41083;52.932;6.674;2023-07-24T13:28:00;20.10;99.90
55213;DHT22;41083;52.932;6.674;2023-07-24T13:30:26;20.00;99.90
55213;DHT22;41083;52.932;6.674;2023-07-24T13:32:51;19.90;99.90
55213;DHT22;41083;52.932;6.674;2023-07-24T13:35:17;19.70;99.90
55213;DHT22;41083;52.932;6.674;2023-07-24T13:37:43;19.60;99.90
55213;DHT22;41083;52.932;6.674;2023-07-24T13:40:09;19.50;99.90
55213;DHT22;41083;52.932;6.674;2023-07-24T13:42:34;19.50;99.90
55213;DHT22;41083;52.932;6.674;2023-07-24T13:45:00;19.40;99.90
55213;DHT22;41083;52.932;6.674;2023-07-24T13:47:25;19.30;99.90
55213;DHT22;41083;52.932;6.674;2023-07-24T13:49:51;19.30;99.90
55213;DHT22;41083;52.932;6.674;2023-07-24T13:52:17;19.20;99.90
55213;DHT22;41083;52.932;6.674;2023-07-24T13:54:42;19.20;99.90
55213;DHT22;41083;52.932;6.674;2023-07-24T13:57:08;19.20;99.90
55213;DHT22;41083;52.932;6.674;2023-07-24T13:59:35;19.10;99.90
55213;DHT22;41083;52.932;6.674;2023-07-24T14:02:01;19.10;99.90
55213;DHT22;41083;52.932;6.674;2023-07-24T14:04:26;19.10;99.90
55213;DHT22;41083;52.932;6.674;2023-07-24T14:06:52;19.10;99.90
55213;DHT22;41083;52.932;6.674;2023-07-24T14:09:17;19.00;99.90
55213;DHT22;41083;52.932;6.674;2023-07-24T14:11:43;19.00;99.90
55213;DHT22;41083;52.932;6.674;2023-07-24T14:14:08;19.00;99.90
55213;DHT22;41083;52.932;6.674;2023-07-24T14:16:34;19.10;99.90
55213;DHT22;41083;52.932;6.674;2023-07-24T14:19:00;19.00;99.90
55213;DHT22;41083;52.932;6.674;2023-07-24T14:21:25;19.00;99.90
55213;DHT22;41083;52.932;6.674;2023-07-24T14:23:51;19.00;99.90
55213;DHT22;41083;52.932;6.674;2023-07-24T14:26:16;19.10;99.90
55213;DHT22;41083;52.932;6.674;2023-07-24T14:28:42;19.10;99.90
55213;DHT22;41083;52.932;6.674;2023-07-24T14:31:08;19.10;99.90
55213;DHT22;41083;52.932;6.674;2023-07-24T14:33:33;19.20;99.90
55213;DHT22;41083;52.932;6.674;2023-07-24T14:35:59;19.20;99.90
55213;DHT22;41083;52.932;6.674;2023-07-24T14:38:24;19.20;99.90
55213;DHT22;41083;52.932;6.674;2023-07-24T14:40:50;19.10;99.90
55213;DHT22;41083;52.932;6.674;2023-07-24T14:43:15;19.20;99.90
55213;DHT22;41083;52.932;6.674;2023-07-24T14:45:41;19.10;99.90
55213;DHT22;41083;52.932;6.674;2023-07-24T14:48:07;19.10;99.90
55213;DHT22;41083;52.932;6.674;2023-07-24T14:50:38;19.10;99.90
55213;DHT22;41083;52.932;6.674;2023-07-24T14:53:03;19.00;99.90
55213;DHT22;41083;52.932;6.674;2023-07-24T14:55:29;19.00;99.90
55213;DHT22;41083;52.932;6.674;2023-07-24T14:57:54;19.10;99.90
55213;DHT22;41083;52.932;6.674;2023-07-24T15:00:20;19.10;99.90
55213;DHT22;41083;52.932;6.674;2023-07-24T15:02:45;19.10;99.90
55213;DHT22;41083;52.932;6.674;2023-07-24T15:05:11;19.10;99.90
55213;DHT22;41083;52.932;6.674;2023-07-24T15:07:37;19.20;99.90
55213;DHT22;41083;52.932;6.674;2023-07-24T15:10:03;19.20;99.90
55213;DHT22;41083;52.932;6.674;2023-07-24T15:12:28;19.20;99.90
55213;DHT22;41083;52.932;6.674;2023-07-24T15:14:56;19.20;99.90
55213;DHT22;41083;52.932;6.674;2023-07-24T15:17:22;19.20;99.90
55213;DHT22;41083;52.932;6.674;2023-07-24T15:19:47;19.20;99.90
55213;DHT22;41083;52.932;6.674;2023-07-24T15:22:13;19.20;99.90
55213;DHT22;41083;52.932;6.674;2023-07-24T15:24:40;19.20;99.90
55213;DHT22;41083;52.932;6.674;2023-07-24T15:27:06;19.10;99.90
55213;DHT22;41083;52.932;6.674;2023-07-24T15:29:37;19.00;99.90